Time;durP1;ratioP1;P1;durP2;ratioP2;P2;SDS_P1;SDS_P2;PMS_P1;PMS_P2;Temp;Humidity;BMP_temperature;BMP_pressure;BME280_temperature;BME280_humidity;BME280_pressure;Samples;Min_cycle;Max_cycle;Signal;HPM_P1;HPM_P2
2023/07/27 00:00:35;;;;;;;;;3.00;3.00;;;;;;;;5101708;27;45355;-70
2023/07/27 00:03:00;;;;;;;;;5.67;4.67;;;;;;;;5101565;27;46421;-70
2023/07/27 00:05:26;;;;;;;;;6.00;4.00;;;;;;;;5101720;27;45745;-69
2023/07/27 00:07:51;;;;;;;;;4.33;3.33;;;;;;;;5101458;27;45302;-69
2023/07/27 00:10:16;;;;;;;;;4.00;4.00;;;;;;;;5101907;27;45418;-71
2023/07/27 00:12:41;;;;;;;;;5.33;4.00;;;;;;;;5101384;27;46153;-70
2023/07/27 00:15:07;;;;;;;;;3.00;3.00;;;;;;;;5101425;27;45505;-70
2023/07/27 00:17:32;;;;;;;;;6.67;3.67;;;;;;;;5101448;27;45724;-70
2023/07/27 00:19:57;;;;;;;;;5.33;5.00;;;;;;;;5101772;27;45475;-70
2023/07/27 00:22:23;;;;;;;;;6.00;5.00;;;;;;;;5101056;27;45469;-70
2023/07/27 00:24:48;;;;;;;;;4.00;4.00;;;;;;;;5101410;27;45382;-71
2023/07/27 00:27:13;;;;;;;;;3.67;3.67;;;;;;;;5101350;27;45338;-71
2023/07/27 00:29:38;;;;;;;;;4.67;4.67;;;;;;;;5101699;27;45365;-70
2023/07/27 00:32:04;;;;;;;;;4.33;4.00;;;;;;;;5101249;27;45622;-70
2023/07/27 00:34:29;;;;;;;;;3.00;3.00;;;;;;;;5101223;27;45491;-69
2023/07/27 00:36:54;;;;;;;;;4.33;4.33;;;;;;;;5100990;27;45578;-70
2023/07/27 00:39:19;;;;;;;;;2.67;1.67;;;;;;;;5101382;27;45364;-69
2023/07/27 00:41:45;;;;;;;;;6.00;4.33;;;;;;;;5100847;27;45701;-70
2023/07/27 00:44:10;;;;;;;;;7.00;4.00;;;;;;;;5100819;27;45290;-70
2023/07/27 00:46:36;;;;;;;;;3.00;3.00;;;;;;;;5101355;27;45328;-70
2023/07/27 00:49:02;;;;;;;;;5.67;2.00;;;;;;;;5099946;27;45472;-70
2023/07/27 00:51:28;;;;;;;;;5.67;4.33;;;;;;;;5100654;27;46122;-70
2023/07/27 00:53:53;;;;;;;;;6.33;4.00;;;;;;;;5100937;27;45221;-70
2023/07/27 00:56:18;;;;;;;;;4.00;3.00;;;;;;;;5100882;27;45298;-70
2023/07/27 00:58:44;;;;;;;;;4.00;4.00;;;;;;;;5101086;27;45383;-70
2023/07/27 01:01:10;;;;;;;;;2.00;2.00;;;;;;;;5096821;27;46912;-71
2023/07/27 01:03:35;;;;;;;;;3.00;3.00;;;;;;;;5103653;27;45341;-70
2023/07/27 01:06:01;;;;;;;;;7.00;6.00;;;;;;;;5100651;27;45401;-71
2023/07/27 01:08:26;;;;;;;;;2.33;2.33;;;;;;;;5100613;27;45491;-71
2023/07/27 01:10:55;;;;;;;;;4.00;3.00;;;;;;;;5100520;27;46099;-71
2023/07/27 01:13:23;;;;;;;;;3.00;3.00;;;;;;;;5100339;27;45496;-70
2023/07/27 01:15:53;;;;;;;;;3.33;2.00;;;;;;;;5100174;27;45215;-71
2023/07/27 01:18:22;;;;;;;;;5.00;3.67;;;;;;;;5100779;27;45332;-71
2023/07/27 01:20:53;;;;;;;;;4.00;4.00;;;;;;;;5100224;27;45331;-71
2023/07/27 01:23:37;;;;;;;;;4.00;2.33;;;;;;;;5081720;27;45410;-70
2023/07/27 01:26:02;;;;;;;;;3.00;3.00;;;;;;;;5100275;27;45482;-70
2023/07/27 01:28:42;;;;;;;;;2.00;2.00;;;;;;;;5100614;27;45377;-70
2023/07/27 01:31:30;;;;;;;;;3.33;2.00;;;;;;;;5099819;27;45613;-71
2023/07/27 01:34:02;;;;;;;;;2.00;2.00;;;;;;;;5100351;27;45427;-71
2023/07/27 01:36:30;;;;;;;;;2.00;2.00;;;;;;;;5100258;27;45301;-71
2023/07/27 01:38:59;;;;;;;;;4.00;4.00;;;;;;;;5100458;27;45492;-71
2023/07/27 01:41:26;;;;;;;;;2.00;2.00;;;;;;;;5099768;27;47308;-71
2023/07/27 01:43:51;;;;;;;;;5.00;3.00;;;;;;;;5099745;27;45398;-71
2023/07/27 01:46:17;;;;;;;;;4.00;2.00;;;;;;;;5100395;27;45301;-71
2023/07/27 01:48:43;;;;;;;;;3.67;3.67;;;;;;;;5100331;27;45208;-71
2023/07/27 01:51:09;;;;;;;;;4.33;4.33;;;;;;;;5099808;27;46488;-71
2023/07/27 01:53:35;;;;;;;;;4.00;2.00;;;;;;;;5099875;27;45433;-70
2023/07/27 01:56:02;;;;;;;;;4.00;3.00;;;;;;;;5099238;27;45241;-70
2023/07/27 01:58:28;;;;;;;;;2.00;2.00;;;;;;;;5099850;27;45377;-70
2023/07/27 02:00:55;;;;;;;;;3.00;3.00;;;;;;;;5099594;27;46368;-70
2023/07/27 02:03:20;;;;;;;;;4.00;3.33;;;;;;;;5099332;27;45443;-71
2023/07/27 02:05:46;;;;;;;;;3.00;3.00;;;;;;;;5099688;27;45543;-73
2023/07/27 02:08:11;;;;;;;;;3.00;2.67;;;;;;;;5100109;27;45390;-71
2023/07/27 02:10:37;;;;;;;;;5.33;3.67;;;;;;;;5099790;27;46707;-71
2023/07/27 02:13:02;;;;;;;;;6.33;4.00;;;;;;;;5099590;27;45239;-71
2023/07/27 02:15:32;;;;;;;;;3.33;3.00;;;;;;;;5099815;27;45270;-71
2023/07/27 02:18:00;;;;;;;;;3.33;3.33;;;;;;;;5099719;27;45472;-71
2023/07/27 02:20:31;;;;;;;;;7.33;4.67;;;;;;;;5099181;27;46400;-71
2023/07/27 02:22:56;;;;;;;;;4.00;4.00;;;;;;;;5098679;27;45190;-71
2023/07/27 02:25:22;;;;;;;;;6.33;5.00;;;;;;;;5099533;27;45397;-71
2023/07/27 02:27:48;;;;;;;;;4.00;4.00;;;;;;;;5099418;27;45394;-71
2023/07/27 02:30:13;;;;;;;;;6.00;4.25;;;;;;;;5098946;27;46589;-70
2023/07/27 02:32:38;;;;;;;;;4.67;3.67;;;;;;;;5099352;27;45347;-69
2023/07/27 02:35:04;;;;;;;;;3.25;3.25;;;;;;;;5099477;27;45534;-70
2023/07/27 02:37:29;;;;;;;;;7.00;5.00;;;;;;;;5099463;27;45279;-71
2023/07/27 02:39:54;;;;;;;;;5.00;4.00;;;;;;;;5098895;27;45794;-70
2023/07/27 02:42:19;;;;;;;;;4.00;3.00;;;;;;;;5099325;27;45273;-70
2023/07/27 02:44:44;;;;;;;;;3.00;3.00;;;;;;;;5099106;27;45402;-70
2023/07/27 02:47:10;;;;;;;;;6.67;5.00;;;;;;;;5099495;27;45380;-71
2023/07/27 02:49:35;;;;;;;;;4.00;4.00;;;;;;;;5098811;27;46404;-70
2023/07/27 02:52:00;;;;;;;;;5.67;5.00;;;;;;;;5099021;27;45653;-71
2023/07/27 02:54:25;;;;;;;;;4.67;4.67;;;;;;;;5098927;27;45429;-71
2023/07/27 02:56:50;;;;;;;;;4.00;4.00;;;;;;;;5098923;27;45459;-71
2023/07/27 02:59:16;;;;;;;;;5.00;5.00;;;;;;;;5098800;27;45490;-71
2023/07/27 03:01:41;;;;;;;;;5.00;4.00;;;;;;;;5098732;27;45403;-71
2023/07/27 03:04:06;;;;;;;;;3.00;3.00;;;;;;;;5098973;27;45245;-71
2023/07/27 03:06:31;;;;;;;;;5.00;5.00;;;;;;;;5098822;27;45620;-71
2023/07/27 03:08:56;;;;;;;;;5.00;5.00;;;;;;;;5098499;27;46294;-71
2023/07/27 03:11:22;;;;;;;;;5.33;5.00;;;;;;;;5098775;27;45427;-71
2023/07/27 03:13:47;;;;;;;;;5.00;5.00;;;;;;;;5098550;27;45253;-72
2023/07/27 03:16:12;;;;;;;;;3.67;3.67;;;;;;;;5098790;27;45348;-72
2023/07/27 03:18:37;;;;;;;;;5.00;4.00;;;;;;;;5098750;27;45394;-71
2023/07/27 03:21:03;;;;;;;;;4.00;4.00;;;;;;;;5098479;27;45494;-71
2023/07/27 03:23:29;;;;;;;;;4.33;4.33;;;;;;;;5098608;27;45663;-72
2023/07/27 03:25:54;;;;;;;;;4.00;4.00;;;;;;;;5098604;27;45255;-71
2023/07/27 03:28:19;;;;;;;;;4.00;4.00;;;;;;;;5098318;27;45517;-71
2023/07/27 03:30:44;;;;;;;;;4.00;4.00;;;;;;;;5098435;27;45286;-71
2023/07/27 03:33:09;;;;;;;;;4.33;4.33;;;;;;;;5097755;27;45635;-71
2023/07/27 03:35:35;;;;;;;;;4.67;4.67;;;;;;;;5098195;27;45294;-71
2023/07/27 03:38:00;;;;;;;;;5.00;5.00;;;;;;;;5098051;27;45363;-71
2023/07/27 03:40:25;;;;;;;;;5.33;5.00;;;;;;;;5098218;27;45171;-70
2023/07/27 03:42:50;;;;;;;;;4.33;4.33;;;;;;;;5098452;27;45398;-69
2023/07/27 03:45:16;;;;;;;;;4.00;4.00;;;;;;;;5098137;27;45334;-70
2023/07/27 03:47:41;;;;;;;;;5.67;4.00;;;;;;;;5097715;27;46566;-69
2023/07/27 03:50:07;;;;;;;;;3.00;3.00;;;;;;;;5097408;27;45309;-69
2023/07/27 03:52:32;;;;;;;;;5.33;4.00;;;;;;;;5098310;27;45268;-69
2023/07/27 03:54:57;;;;;;;;;3.33;3.33;;;;;;;;5098393;27;45397;-70
2023/07/27 03:57:23;;;;;;;;;5.00;5.00;;;;;;;;5097912;27;46011;-70
2023/07/27 03:59:48;;;;;;;;;4.67;4.67;;;;;;;;5097799;27;45319;-72
2023/07/27 04:02:13;;;;;;;;;2.67;2.67;;;;;;;;5097997;27;45373;-71
2023/07/27 04:04:39;;;;;;;;;5.67;5.67;;;;;;;;5098220;27;45383;-71
2023/07/27 04:07:04;;;;;;;;;8.67;5.33;;;;;;;;5097895;27;45360;-72
2023/07/27 04:09:29;;;;;;;;;12.67;6.67;;;;;;;;5097586;27;45563;-72
2023/07/27 04:11:54;;;;;;;;;10.33;8.00;;;;;;;;5098026;27;45331;-71
2023/07/27 04:14:20;;;;;;;;;11.67;9.67;;;;;;;;5097687;27;45506;-72
2023/07/27 04:16:45;;;;;;;;;19.67;15.33;;;;;;;;5097469;27;46135;-72
2023/07/27 04:19:11;;;;;;;;;14.00;13.00;;;;;;;;5097720;27;45432;-71
2023/07/27 04:21:36;;;;;;;;;25.67;19.67;;;;;;;;5097687;27;45215;-75
2023/07/27 04:24:01;;;;;;;;;25.00;23.00;;;;;;;;5098137;27;45446;-68
2023/07/27 04:26:27;;;;;;;;;32.67;28.33;;;;;;;;5097559;27;46839;-68
2023/07/27 04:28:52;;;;;;;;;16.67;15.67;;;;;;;;5097581;27;45404;-69
2023/07/27 04:31:17;;;;;;;;;19.00;15.00;;;;;;;;5097623;27;45384;-71
2023/07/27 04:33:42;;;;;;;;;12.00;10.00;;;;;;;;5097875;27;45368;-71
2023/07/27 04:36:07;;;;;;;;;6.67;4.67;;;;;;;;5097684;27;46326;-71
2023/07/27 04:38:33;;;;;;;;;3.33;3.33;;;;;;;;5096881;27;45465;-68
2023/07/27 04:40:58;;;;;;;;;4.67;4.00;;;;;;;;5104545;27;45222;-69
2023/07/27 04:43:23;;;;;;;;;6.00;5.33;;;;;;;;5118371;27;45520;-70
2023/07/27 04:45:49;;;;;;;;;3.67;3.67;;;;;;;;5105021;27;45636;-66
2023/07/27 04:48:14;;;;;;;;;4.00;4.00;;;;;;;;5100019;27;45431;-70
2023/07/27 04:50:39;;;;;;;;;2.00;2.00;;;;;;;;5100701;27;45496;-66
2023/07/27 04:53:04;;;;;;;;;4.00;3.00;;;;;;;;5120750;27;45489;-66
2023/07/27 04:55:29;;;;;;;;;3.00;3.00;;;;;;;;5121247;27;46617;-68
2023/07/27 04:57:55;;;;;;;;;4.33;3.00;;;;;;;;5120591;27;45239;-65
2023/07/27 05:00:20;;;;;;;;;2.00;2.00;;;;;;;;5121299;27;45380;-66
2023/07/27 05:02:45;;;;;;;;;3.50;3.50;;;;;;;;5120839;27;45399;-66
2023/07/27 05:05:10;;;;;;;;;4.00;4.00;;;;;;;;5121174;27;46362;-66
2023/07/27 05:07:36;;;;;;;;;3.67;3.67;;;;;;;;5120797;27;45328;-66
2023/07/27 05:10:01;;;;;;;;;7.33;5.00;;;;;;;;5120983;27;45334;-65
2023/07/27 05:12:27;;;;;;;;;4.33;4.00;;;;;;;;5121282;27;45429;-65
2023/07/27 05:14:52;;;;;;;;;6.67;4.67;;;;;;;;5120450;27;45429;-68
2023/07/27 05:17:17;;;;;;;;;7.00;6.00;;;;;;;;5120971;27;45310;-68
2023/07/27 05:19:42;;;;;;;;;5.33;3.33;;;;;;;;5121220;27;45187;-67
2023/07/27 05:22:08;;;;;;;;;5.00;3.67;;;;;;;;5121383;27;45275;-68
2023/07/27 05:24:33;;;;;;;;;3.00;2.33;;;;;;;;5121066;27;45404;-68
2023/07/27 05:26:58;;;;;;;;;3.25;3.25;;;;;;;;5120960;27;45421;-68
2023/07/27 05:29:23;;;;;;;;;6.33;6.33;;;;;;;;5114407;27;45417;-68
2023/07/27 05:31:49;;;;;;;;;2.33;2.33;;;;;;;;5100194;27;45312;-67
2023/07/27 05:34:14;;;;;;;;;2.00;2.00;;;;;;;;5100403;27;45435;-67
2023/07/27 05:36:39;;;;;;;;;2.67;2.67;;;;;;;;5100202;27;45500;-68
2023/07/27 05:39:04;;;;;;;;;1.75;1.00;;;;;;;;5099528;27;45454;-68
2023/07/27 05:41:30;;;;;;;;;2.00;2.00;;;;;;;;5104828;27;45358;-70
2023/07/27 05:43:55;;;;;;;;;1.00;1.00;;;;;;;;5120549;27;46182;-70
2023/07/27 05:46:20;;;;;;;;;1.75;1.75;;;;;;;;5109073;27;45357;-70
2023/07/27 05:48:46;;;;;;;;;1.00;1.00;;;;;;;;5100185;27;45312;-71
2023/07/27 05:51:11;;;;;;;;;1.00;1.00;;;;;;;;5099658;27;45383;-73
2023/07/27 05:53:36;;;;;;;;;2.00;1.00;;;;;;;;5099691;27;45319;-73
2023/07/27 05:56:01;;;;;;;;;2.00;1.00;;;;;;;;5098820;27;45962;-72
2023/07/27 05:58:27;;;;;;;;;4.00;1.00;;;;;;;;5098904;27;45465;-72
2023/07/27 06:00:59;;;;;;;;;3.00;1.25;;;;;;;;5099449;27;45669;-71
2023/07/27 06:03:24;;;;;;;;;2.50;0.50;;;;;;;;5095046;27;47045;-70
2023/07/27 06:05:49;;;;;;;;;2.00;2.00;;;;;;;;5099895;27;45285;-70
2023/07/27 06:08:15;;;;;;;;;1.67;1.67;;;;;;;;5099766;27;45308;-70
2023/07/27 06:10:40;;;;;;;;;1.75;0.25;;;;;;;;5099017;27;45387;-70
2023/07/27 06:13:05;;;;;;;;;3.00;1.00;;;;;;;;5099712;27;46439;-70
2023/07/27 06:15:30;;;;;;;;;0.75;0.75;;;;;;;;5099380;27;45351;-70
2023/07/27 06:17:55;;;;;;;;;1.00;1.00;;;;;;;;5099532;27;45276;-70
2023/07/27 06:20:21;;;;;;;;;0.00;0.00;;;;;;;;5099934;27;45340;-70
2023/07/27 06:22:46;;;;;;;;;2.00;1.00;;;;;;;;5099564;27;45392;-70
2023/07/27 06:25:11;;;;;;;;;1.75;0.75;;;;;;;;5099441;27;45441;-71
2023/07/27 06:27:36;;;;;;;;;2.00;2.00;;;;;;;;5099513;27;45375;-69
2023/07/27 06:30:01;;;;;;;;;2.00;2.00;;;;;;;;5099763;27;45340;-70
2023/07/27 06:32:27;;;;;;;;;1.00;1.00;;;;;;;;5099138;27;45629;-70
2023/07/27 06:34:52;;;;;;;;;1.00;1.00;;;;;;;;5099527;27;45560;-71
2023/07/27 06:37:18;;;;;;;;;1.25;1.25;;;;;;;;5099384;27;45419;-72
2023/07/27 06:39:44;;;;;;;;;0.25;0.25;;;;;;;;5099404;27;45489;-72
2023/07/27 06:42:09;;;;;;;;;4.50;2.00;;;;;;;;5099032;27;45236;-72
2023/07/27 06:44:34;;;;;;;;;1.00;1.00;;;;;;;;5099253;27;45224;-73
2023/07/27 06:46:59;;;;;;;;;1.50;1.50;;;;;;;;5099219;27;45336;-73
2023/07/27 06:49:24;;;;;;;;;1.50;1.50;;;;;;;;5099410;27;45456;-73
2023/07/27 06:51:50;;;;;;;;;1.25;1.00;;;;;;;;5098827;27;47184;-72
2023/07/27 06:54:15;;;;;;;;;2.75;1.25;;;;;;;;5099059;27;45331;-73
2023/07/27 06:56:40;;;;;;;;;2.00;2.00;;;;;;;;5099963;27;45424;-72
2023/07/27 06:59:05;;;;;;;;;1.00;1.00;;;;;;;;5099835;27;45359;-73
2023/07/27 07:01:30;;;;;;;;;1.00;1.00;;;;;;;;5096330;27;46099;-73
2023/07/27 07:03:56;;;;;;;;;0.75;0.00;;;;;;;;5080436;27;45257;-73
2023/07/27 07:06:21;;;;;;;;;0.00;0.00;;;;;;;;5098968;27;45371;-72
2023/07/27 07:08:47;;;;;;;;;1.00;1.00;;;;;;;;5098787;27;45450;-72
2023/07/27 07:11:13;;;;;;;;;0.00;0.00;;;;;;;;5098659;27;45253;-72
2023/07/27 07:13:38;;;;;;;;;1.00;1.00;;;;;;;;5098380;27;45453;-72
2023/07/27 07:16:04;;;;;;;;;0.00;0.00;;;;;;;;5098775;27;45355;-73
2023/07/27 07:18:29;;;;;;;;;2.00;0.00;;;;;;;;5098826;27;45363;-72
2023/07/27 07:20:54;;;;;;;;;114.00;112.00;;;;;;;;5098296;27;47168;-73
2023/07/27 07:23:19;;;;;;;;;6.33;6.00;;;;;;;;5098570;27;45252;-73
2023/07/27 07:25:45;;;;;;;;;0.00;0.00;;;;;;;;5098764;27;45365;-72
2023/07/27 07:28:10;;;;;;;;;1.00;0.00;;;;;;;;5097009;27;45310;-73
2023/07/27 07:30:38;;;;;;;;;0.00;0.00;;;;;;;;5098401;27;45673;-72
2023/07/27 07:33:04;;;;;;;;;1.75;0.00;;;;;;;;5098257;27;45472;-72
2023/07/27 07:35:29;;;;;;;;;0.00;0.00;;;;;;;;5098488;27;45432;-72
2023/07/27 07:37:54;;;;;;;;;0.00;0.00;;;;;;;;5098643;27;45339;-72
2023/07/27 07:40:23;;;;;;;;;2.00;1.00;;;;;;;;5098174;27;46664;-72
2023/07/27 07:42:48;;;;;;;;;0.00;0.00;;;;;;;;5098356;27;45540;-72
2023/07/27 07:45:14;;;;;;;;;0.00;0.00;;;;;;;;5098523;27;45343;-71
2023/07/27 07:47:39;;;;;;;;;0.00;0.00;;;;;;;;5098527;27;45381;-72
2023/07/27 07:50:04;;;;;;;;;0.75;0.00;;;;;;;;5098286;27;46160;-72
2023/07/27 07:52:30;;;;;;;;;0.00;0.00;;;;;;;;5098335;27;45550;-72
2023/07/27 07:54:56;;;;;;;;;4.33;4.33;;;;;;;;5097014;27;45401;-72
2023/07/27 07:57:21;;;;;;;;;1.00;1.00;;;;;;;;5098424;27;45337;-70
2023/07/27 07:59:47;;;;;;;;;0.00;0.00;;;;;;;;5098021;27;45448;-70
2023/07/27 08:02:12;;;;;;;;;0.00;0.00;;;;;;;;5097918;27;45267;-69
2023/07/27 08:04:38;;;;;;;;;2.25;0.25;;;;;;;;5098301;27;45350;-70
2023/07/27 08:07:03;;;;;;;;;0.00;0.00;;;;;;;;5098355;27;45355;-69
2023/07/27 08:09:28;;;;;;;;;0.00;0.00;;;;;;;;5097797;27;46079;-72
2023/07/27 08:11:54;;;;;;;;;1.00;1.00;;;;;;;;5098026;27;45193;-72
2023/07/27 08:14:19;;;;;;;;;0.00;0.00;;;;;;;;5097809;27;45481;-72
2023/07/27 08:16:44;;;;;;;;;0.00;0.00;;;;;;;;5098008;27;45227;-70
2023/07/27 08:19:09;;;;;;;;;0.00;0.00;;;;;;;;5095926;27;46468;-70
2023/07/27 08:21:34;;;;;;;;;0.00;0.00;;;;;;;;5100527;27;45168;-70
2023/07/27 08:24:00;;;;;;;;;0.50;0.50;;;;;;;;5101150;27;45402;-72
2023/07/27 08:26:25;;;;;;;;;0.00;0.00;;;;;;;;5099701;27;45431;-71
2023/07/27 08:28:51;;;;;;;;;0.50;0.00;;;;;;;;5104893;27;46345;-72
2023/07/27 08:31:16;;;;;;;;;0.50;0.00;;;;;;;;5100889;27;45265;-72
2023/07/27 08:33:41;;;;;;;;;1.00;0.00;;;;;;;;5101223;27;45475;-70
2023/07/27 08:36:06;;;;;;;;;0.00;0.00;;;;;;;;5101676;27;45151;-69
2023/07/27 08:38:31;;;;;;;;;0.00;0.00;;;;;;;;5100751;27;45434;-69
2023/07/27 08:40:57;;;;;;;;;0.00;0.00;;;;;;;;5100862;27;45232;-69
2023/07/27 08:43:23;;;;;;;;;0.00;0.00;;;;;;;;5100629;27;45158;-70
2023/07/27 08:45:48;;;;;;;;;0.00;0.00;;;;;;;;5100891;27;45408;-70
2023/07/27 08:48:14;;;;;;;;;0.00;0.00;;;;;;;;5100379;27;46715;-69
2023/07/27 08:50:39;;;;;;;;;0.00;0.00;;;;;;;;5098823;27;45857;-70
2023/07/27 08:53:05;;;;;;;;;0.00;0.00;;;;;;;;5101352;27;45381;-71
2023/07/27 08:55:30;;;;;;;;;0.00;0.00;;;;;;;;5100882;27;45301;-73
2023/07/27 08:57:55;;;;;;;;;1.00;1.00;;;;;;;;5100555;27;45446;-75
2023/07/27 09:00:21;;;;;;;;;0.00;0.00;;;;;;;;5100969;27;45406;-74
2023/07/27 09:02:46;;;;;;;;;0.00;0.00;;;;;;;;5099090;27;45378;-75
2023/07/27 09:05:12;;;;;;;;;0.00;0.00;;;;;;;;5101176;27;45263;-74
2023/07/27 09:07:38;;;;;;;;;0.75;0.00;;;;;;;;5100643;27;46332;-74
2023/07/27 09:10:05;;;;;;;;;2.00;0.75;;;;;;;;5098974;27;45457;-71
2023/07/27 09:12:32;;;;;;;;;0.00;0.00;;;;;;;;5098501;27;45311;-72
2023/07/27 09:14:57;;;;;;;;;6.33;6.33;;;;;;;;5093918;27;45455;-69
